ěÝzenÝ letovÚho provozu ╚eskÚ republiky
Letiste: LKPD Aktualizace: 13.06.2021 22:25:26  UTC
 METAR LKPD 13.06. 22:30 ...
METAR LKPD 132230Z 26004KT CAVOK 12/08 Q1025 RMK BLU=
 TAF LKPD 13.06. 17:00 ...
TAF LKPD 131700Z 1318/1418 29010KT CAVOK=